< < Back
Terminal Aerodrome Forecast


Current Version              Previous Versions:   1  2  3  4  5  6  7  8  9  

Terminal Aerodrome Forecast

369
FTUS44 KBMX 272320
TAFMGM
TAF
KMGM 272320Z 2800/2824 34004KT P6SM SCT250
      TEMPO 2809/2812 5SM BR=

Latest METAR

947
SAUS80 KWBC 280300 RRA
MTRMGM
METAR KMGM 280253Z 32003KT 10SM CLR 29/24 A2995 RMK AO2 SLP139 T02890239
53008


USA.gov is the U.S. government's official web portal to all federal, state and local government web resources and services.